Time;durP1;ratioP1;P1;durP2;ratioP2;P2;SDS_P1;SDS_P2;PMS_P1;PMS_P2;Temp;Humidity;BMP_temperature;BMP_pressure;BME280_temperature;BME280_humidity;BME280_pressure;Samples;Min_cycle;Max_cycle;Signal;HPM_P1;HPM_P2
2022/10/10 00:03:14;;;;;;;9.00;5.47;;;12.00;93.20;;;;;;20921159;28;20239;-71
2022/10/10 00:13:16;;;;;;;8.17;5.50;;;11.90;93.00;;;;;;20920111;28;20286;-72
2022/10/10 00:23:18;;;;;;;9.17;5.50;;;11.90;93.10;;;;;;20919062;28;20202;-71
2022/10/10 00:33:20;;;;;;;9.83;5.43;;;11.90;93.10;;;;;;20918845;28;20639;-72
2022/10/10 00:43:24;;;;;;;7.10;4.77;;;11.70;93.10;;;;;;20918395;28;20561;-71
2022/10/10 00:53:45;;;;;;;9.30;4.70;;;11.60;93.20;;;;;;20917271;28;20234;-71
2022/10/10 01:03:47;;;;;;;6.40;4.10;;;11.50;93.30;;;;;;20916482;28;20239;-71
2022/10/10 01:14:28;;;;;;;9.00;4.80;;;11.40;93.40;;;;;;20915950;28;20211;-71
2022/10/10 01:24:57;;;;;;;7.10;4.60;;;11.30;93.70;;;;;;20886027;28;20631;-71
2022/10/10 01:35:20;;;;;;;6.30;4.30;;;11.20;93.80;;;;;;20914008;28;20213;-71
2022/10/10 01:45:25;;;;;;;7.93;4.40;;;11.20;94.00;;;;;;20913434;28;20285;-71
2022/10/10 01:55:30;;;;;;;9.40;4.43;;;11.10;94.00;;;;;;20912656;28;20216;-71
2022/10/10 02:05:38;;;;;;;6.10;4.30;;;12.30;94.60;;;;;;20912189;28;20245;-71
2022/10/10 02:15:49;;;;;;;7.53;3.90;;;10.90;94.10;;;;;;20912025;28;20688;-71
2022/10/10 02:25:54;;;;;;;8.63;4.40;;;10.80;94.20;;;;;;20976468;28;20239;-72
2022/10/10 02:35:57;;;;;;;5.37;4.20;;;10.60;94.20;;;;;;21005735;28;20728;-71
2022/10/10 02:46:06;;;;;;;10.30;4.13;;;10.60;94.30;;;;;;21008854;28;20299;-71
2022/10/10 02:56:08;;;;;;;5.30;4.10;;;10.50;94.30;;;;;;21009049;28;20687;-71
2022/10/10 03:06:09;;;;;;;9.43;4.07;;;10.50;94.90;;;;;;21008042;28;20246;-71
2022/10/10 03:16:11;;;;;;;6.33;3.77;;;10.60;95.00;;;;;;21008048;28;20200;-71
2022/10/10 03:26:13;;;;;;;6.40;3.87;;;10.70;95.10;;;;;;21006785;28;20295;-71
2022/10/10 03:36:14;;;;;;;7.27;3.90;;;10.80;95.10;;;;;;21005880;28;20204;-72
2022/10/10 03:46:16;;;;;;;5.80;3.97;;;10.90;95.20;;;;;;21004104;28;20372;-71
2022/10/10 03:56:18;;;;;;;8.00;4.43;;;10.80;95.00;;;;;;21004877;28;20654;-71
2022/10/10 04:06:20;;;;;;;8.30;4.30;;;10.80;95.30;;;;;;21003461;28;20244;-71
2022/10/10 04:16:21;;;;;;;8.10;4.33;;;10.70;95.30;;;;;;21002713;28;20200;-71
2022/10/10 04:26:23;;;;;;;8.50;4.17;;;10.60;95.50;;;;;;20933039;28;20234;-71
2022/10/10 04:36:25;;;;;;;9.63;3.97;;;10.50;95.50;;;;;;20917982;28;20266;-71
2022/10/10 04:46:27;;;;;;;7.97;3.83;;;10.50;95.70;;;;;;20917108;28;20240;-71
2022/10/10 04:56:28;;;;;;;8.77;4.30;;;10.40;95.50;;;;;;20915601;28;20204;-71
2022/10/10 05:06:30;;;;;;;8.20;4.33;;;10.40;95.80;;;;;;20914185;28;20266;-71
2022/10/10 05:16:32;;;;;;;8.20;4.37;;;10.50;96.00;;;;;;20934470;28;20614;-65
2022/10/10 05:26:34;;;;;;;10.63;4.80;;;10.50;95.90;;;;;;20996452;28;20278;-70
2022/10/10 05:36:41;;;;;;;11.97;5.83;;;10.40;95.60;;;;;;20994888;28;20685;-69
2022/10/10 05:46:43;;;;;;;9.43;5.70;;;10.30;95.60;;;;;;20993148;28;20235;-67
2022/10/10 05:56:45;;;;;;;10.53;5.17;;;10.40;95.70;;;;;;20976948;28;20262;-70
2022/10/10 06:06:46;;;;;;;18.53;5.13;;;10.30;95.80;;;;;;20993094;28;20273;-67
2022/10/10 06:16:48;;;;;;;10.57;5.07;;;10.30;95.70;;;;;;20993525;28;20210;-72
2022/10/10 06:26:50;;;;;;;14.73;4.57;;;10.30;96.00;;;;;;20927361;28;20246;-72
2022/10/10 06:36:51;;;;;;;9.67;5.40;;;10.40;95.90;;;;;;20909340;28;20613;-71
2022/10/10 06:46:53;;;;;;;20.83;5.33;;;10.40;96.30;;;;;;20908547;28;20657;-71
2022/10/10 06:56:55;;;;;;;15.10;5.47;;;10.40;96.10;;;;;;20908877;28;20260;-70
2022/10/10 07:06:56;;;;;;;20.10;6.03;;;10.60;96.40;;;;;;20907676;28;20244;-69
2022/10/10 07:16:58;;;;;;;17.27;5.50;;;11.10;96.00;;;;;;20911275;28;20213;-72
2022/10/10 07:27:00;;;;;;;10.67;5.70;;;11.30;95.80;;;;;;20922106;28;20284;-70
2022/10/10 07:37:09;;;;;;;9.47;4.83;;;11.30;96.00;;;;;;20922036;28;20561;-72
2022/10/10 07:47:10;;;;;;;8.77;4.83;;;11.60;96.00;;;;;;20921214;28;20262;-72
2022/10/10 07:57:12;;;;;;;10.77;5.50;;;11.90;95.80;;;;;;20920919;28;20270;-70
2022/10/10 08:07:14;;;;;;;15.47;4.73;;;12.20;95.60;;;;;;20919401;28;20294;-72
2022/10/10 08:17:15;;;;;;;9.60;5.07;;;12.50;94.80;;;;;;20918754;28;20211;-71
2022/10/10 08:27:18;;;;;;;14.50;5.70;;;12.60;94.80;;;;;;20916965;28;20303;-72
2022/10/10 08:37:19;;;;;;;11.63;5.50;;;12.80;95.00;;;;;;20917332;28;20207;-70
2022/10/10 08:47:51;;;;;;;10.83;5.73;;;13.00;94.90;;;;;;20916028;28;20241;-70
2022/10/10 08:57:58;;;;;;;11.73;5.83;;;13.30;94.70;;;;;;20916562;28;20271;-72
2022/10/10 09:08:25;;;;;;;16.93;6.00;;;13.60;94.50;;;;;;20914063;28;20317;-72
2022/10/10 09:18:52;;;;;;;13.40;6.20;;;13.70;94.30;;;;;;20901183;28;20266;-73
2022/10/10 09:29:16;;;;;;;10.63;5.73;;;13.80;94.30;;;;;;20913742;28;20231;-71
2022/10/10 09:39:50;;;;;;;11.17;6.07;;;14.10;94.30;;;;;;20910837;28;20663;-71
2022/10/10 09:49:51;;;;;;;9.37;5.30;;;14.50;94.20;;;;;;20912157;28;20235;-70
2022/10/10 09:59:53;;;;;;;10.20;5.73;;;14.80;94.10;;;;;;20911957;28;20319;-72
2022/10/10 10:10:00;;;;;;;12.50;5.23;;;15.30;93.80;;;;;;20911613;28;20635;-70
2022/10/10 10:20:02;;;;;;;11.17;5.63;;;15.40;94.10;;;;;;20910402;28;20211;-72
2022/10/10 10:30:23;;;;;;;6.90;4.53;;;15.60;94.20;;;;;;20965106;28;20563;-67
2022/10/10 10:40:34;;;;;;;7.50;5.00;;;15.90;94.30;;;;;;20994654;28;20203;-72
2022/10/10 10:50:47;;;;;;;8.30;5.00;;;16.40;94.10;;;;;;20993277;28;20325;-71
2022/10/10 11:00:55;;;;;;;9.73;4.73;;;16.50;94.20;;;;;;21008259;28;20707;-72
2022/10/10 11:11:52;;;;;;;5.73;4.07;;;16.70;94.50;;;;;;21008256;28;20270;-72
2022/10/10 11:22:03;;;;;;;7.43;4.50;;;16.90;94.60;;;;;;20969545;28;20687;-71
2022/10/10 11:32:13;;;;;;;12.70;4.17;;;17.20;94.70;;;;;;21006344;28;20250;-71
2022/10/10 11:42:19;;;;;;;10.30;3.27;;;17.50;94.80;;;;;;21006597;28;20550;-70
2022/10/10 11:52:42;;;;;;;9.70;3.10;;;18.00;94.40;;;;;;21004723;28;20701;-71
2022/10/10 12:02:45;;;;;;;6.63;2.83;;;18.40;93.60;;;;;;21001414;28;20231;-71
2022/10/10 12:12:51;;;;;;;10.23;3.00;;;18.80;93.10;;;;;;21003839;28;20243;-69
2022/10/10 12:23:28;;;;;;;6.67;3.00;;;19.20;92.30;;;;;;20990026;28;20200;-76
2022/10/10 12:33:30;;;;;;;10.67;3.03;;;19.40;91.60;;;;;;20917421;28;20238;-76
2022/10/10 12:43:47;;;;;;;11.00;3.33;;;19.60;91.20;;;;;;21000874;28;20211;-75
2022/10/10 12:53:54;;;;;;;13.90;3.50;;;19.60;90.40;;;;;;21000583;28;20234;-73
2022/10/10 13:03:56;;;;;;;7.63;3.30;;;19.60;90.20;;;;;;20981316;28;20263;-74
2022/10/10 13:14:06;;;;;;;5.97;3.00;;;19.60;90.00;;;;;;20998789;28;20239;-75
2022/10/10 13:24:15;;;;;;;9.17;4.03;;;19.70;89.70;;;;;;20997625;28;20658;-75
2022/10/10 13:34:23;;;;;;;9.10;3.00;;;19.80;88.80;;;;;;20997980;28;20610;-73
2022/10/10 13:44:46;;;;;;;11.37;3.00;;;19.80;88.30;;;;;;20996988;28;20213;-75
2022/10/10 13:54:48;;;;;;;15.00;2.83;;;19.90;86.90;;;;;;20995733;28;20211;-73
2022/10/10 14:04:52;;;;;;;15.43;3.60;;;20.00;83.50;;;;;;20996250;28;20698;-71
2022/10/10 14:14:56;;;;;;;17.80;3.27;;;20.10;81.60;;;;;;20996061;28;20206;-72
2022/10/10 14:24:58;;;;;;;14.90;4.10;;;20.30;80.10;;;;;;20994986;28;20300;-71
2022/10/10 14:35:00;;;;;;;12.87;4.50;;;20.50;78.00;;;;;;20984137;28;20212;-74
2022/10/10 14:45:02;;;;;;;9.50;2.70;;;20.30;78.20;;;;;;20910867;28;20203;-72
2022/10/10 14:55:04;;;;;;;13.77;2.87;;;20.10;78.10;;;;;;20909868;28;20592;-72
2022/10/10 15:05:06;;;;;;;14.40;3.70;;;20.10;77.90;;;;;;20910276;28;20244;-70
2022/10/10 15:15:09;;;;;;;11.00;2.97;;;19.90;77.50;;;;;;20986192;28;20211;-70
2022/10/10 15:25:10;;;;;;;15.30;3.27;;;19.70;77.80;;;;;;20992199;28;20276;-69
2022/10/10 15:35:22;;;;;;;17.67;3.80;;;19.50;78.20;;;;;;20990148;28;20654;-71
2022/10/10 15:45:24;;;;;;;19.17;3.63;;;19.40;78.90;;;;;;21003839;28;20215;-68
2022/10/10 15:55:46;;;;;;;15.53;4.03;;;19.20;79.70;;;;;;21005025;28;20249;-67
2022/10/10 16:05:49;;;;;;;19.43;4.67;;;19.00;80.50;;;;;;21003309;28;20246;-72
2022/10/10 16:15:58;;;;;;;16.60;4.20;;;18.60;82.10;;;;;;21003256;28;20201;-71
2022/10/10 16:26:05;;;;;;;16.23;4.30;;;18.60;83.10;;;;;;20986596;28;20234;-72
2022/10/10 16:36:12;;;;;;;17.53;4.50;;;18.30;84.00;;;;;;20918498;28;20251;-67
2022/10/10 16:46:18;;;;;;;25.70;6.10;;;18.10;85.60;;;;;;20924008;28;20242;-70
2022/10/10 16:56:20;;;;;;;17.77;5.93;;;17.80;87.00;;;;;;20918181;28;20205;-71
2022/10/10 17:06:22;;;;;;;26.30;7.63;;;17.60;88.50;;;;;;20936848;28;20292;-70
2022/10/10 17:16:26;;;;;;;19.83;6.20;;;18.10;90.40;;;;;;20998939;28;20213;-70
2022/10/10 17:26:47;;;;;;;30.17;7.40;;;17.20;90.70;;;;;;20999733;28;20267;-70
2022/10/10 17:36:49;;;;;;;23.40;7.43;;;16.80;91.30;;;;;;20997289;28;20228;-69
2022/10/10 17:46:51;;;;;;;26.93;8.80;;;16.70;91.90;;;;;;20996812;28;20231;-71
2022/10/10 17:56:52;;;;;;;27.67;7.93;;;16.50;92.40;;;;;;20996793;28;20262;-69
2022/10/10 18:06:54;;;;;;;22.40;8.37;;;16.30;92.80;;;;;;20994967;28;20246;-70
2022/10/10 18:16:56;;;;;;;23.20;7.33;;;16.00;93.20;;;;;;20994312;28;20719;-70
2022/10/10 18:26:58;;;;;;;18.77;8.07;;;16.00;93.70;;;;;;20994750;28;20605;-69
2022/10/10 18:36:59;;;;;;;25.30;7.60;;;15.90;94.00;;;;;;20994940;28;20577;-69
2022/10/10 18:47:01;;;;;;;20.23;8.10;;;15.70;94.30;;;;;;20994011;28;20287;-70
2022/10/10 18:57:03;;;;;;;23.30;9.63;;;15.70;94.70;;;;;;20994035;28;20211;-69
2022/10/10 19:07:05;;;;;;;29.43;9.77;;;15.60;95.00;;;;;;20947174;28;20240;-69
2022/10/10 19:17:07;;;;;;;16.57;8.00;;;15.50;95.30;;;;;;20838488;28;20214;-70
2022/10/10 19:27:08;;;;;;;21.63;8.07;;;15.50;95.70;;;;;;20843012;28;20238;-69
2022/10/10 19:37:10;;;;;;;16.23;7.40;;;15.50;95.90;;;;;;20962630;28;20204;-70
2022/10/10 19:47:12;;;;;;;18.93;7.03;;;15.50;96.10;;;;;;20943446;28;20256;-71
2022/10/10 19:57:14;;;;;;;16.73;7.10;;;15.40;96.20;;;;;;21005970;28;20604;-70
2022/10/10 20:07:16;;;;;;;24.10;7.73;;;15.40;96.50;;;;;;20959560;28;20240;-69
2022/10/10 20:17:18;;;;;;;18.20;5.67;;;15.30;96.90;;;;;;20921372;28;20206;-69
2022/10/10 20:27:19;;;;;;;21.43;6.00;;;15.40;97.70;;;;;;20920275;28;20235;-70
2022/10/10 20:37:21;;;;;;;19.47;6.47;;;15.50;98.40;;;;;;20919759;28;20201;-70
2022/10/10 20:47:23;;;;;;;17.90;6.83;;;15.50;98.80;;;;;;20919141;28;20232;-70
2022/10/10 20:57:24;;;;;;;12.63;6.17;;;15.60;99.10;;;;;;20918739;28;20208;-69
2022/10/10 21:07:29;;;;;;;20.50;7.43;;;15.60;99.60;;;;;;20943833;28;20253;-69
2022/10/10 21:17:31;;;;;;;22.33;8.17;;;15.70;99.80;;;;;;20916667;28;20263;-69
2022/10/10 21:27:33;;;;;;;26.77;7.97;;;15.60;99.80;;;;;;20916297;28;20255;-69
2022/10/10 21:37:35;;;;;;;17.03;7.17;;;15.50;99.90;;;;;;20915436;28;20580;-69
2022/10/10 21:47:40;;;;;;;19.77;7.93;;;15.50;99.90;;;;;;20914636;28;20227;-71
2022/10/10 21:57:42;;;;;;;17.07;7.47;;;15.50;99.90;;;;;;20914580;28;20210;-71
2022/10/10 22:07:44;;;;;;;16.03;7.77;;;15.40;99.90;;;;;;20913166;28;20243;-71
2022/10/10 22:17:47;;;;;;;21.90;7.63;;;15.50;99.90;;;;;;20912130;28;20216;-70
2022/10/10 22:27:49;;;;;;;25.77;8.47;;;15.40;99.90;;;;;;20911755;28;20309;-69
2022/10/10 22:37:53;;;;;;;24.00;8.60;;;15.40;99.90;;;;;;20912108;28;20203;-71
2022/10/10 22:47:55;;;;;;;22.03;8.57;;;15.40;99.90;;;;;;20915257;28;20593;-69
2022/10/10 22:57:57;;;;;;;17.00;7.67;;;15.40;99.90;;;;;;20928253;28;20239;-69
2022/10/10 23:07:58;;;;;;;16.50;7.10;;;15.30;99.90;;;;;;20927351;28;20244;-71
2022/10/10 23:18:00;;;;;;;14.43;7.60;;;15.40;99.90;;;;;;20926361;28;20250;-71
2022/10/10 23:28:02;;;;;;;17.30;8.33;;;15.40;99.90;;;;;;20925533;28;20235;-70
2022/10/10 23:38:04;;;;;;;27.70;8.40;;;15.40;99.90;;;;;;20925100;28;20676;-69
2022/10/10 23:48:06;;;;;;;17.23;7.97;;;15.30;99.90;;;;;;20923814;28;20232;-70
2022/10/10 23:58:08;;;;;;;19.13;7.90;;;15.30;99.90;;;;;;20999432;28;20211;-71
